createdAt,value
2018-08-04T00:00:40.090Z,3.67
2018-08-04T00:03:09.142Z,3.90
2018-08-04T00:05:38.059Z,3.67
2018-08-04T00:08:07.007Z,3.87
2018-08-04T00:10:35.904Z,4.00
2018-08-04T00:13:05.660Z,4.07
2018-08-04T00:15:34.586Z,3.67
2018-08-04T00:18:03.591Z,3.87
2018-08-04T00:20:32.537Z,4.07
2018-08-04T00:23:01.465Z,3.80
2018-08-04T00:25:30.727Z,3.80
2018-08-04T00:27:59.640Z,3.60
2018-08-04T00:30:28.547Z,3.60
2018-08-04T00:32:57.426Z,3.30
2018-08-04T00:35:26.312Z,3.50
2018-08-04T00:37:55.287Z,3.60
2018-08-04T00:40:25.283Z,3.30
2018-08-04T00:42:54.177Z,3.47
2018-08-04T00:45:23.062Z,3.17
2018-08-04T00:47:51.996Z,2.93
2018-08-04T00:50:21.968Z,3.50
2018-08-04T00:52:50.894Z,3.63
2018-08-04T00:55:19.855Z,3.07
2018-08-04T00:57:48.774Z,3.30
2018-08-04T01:00:17.818Z,3.40
2018-08-04T01:02:46.704Z,3.03
2018-08-04T01:05:15.597Z,3.03
2018-08-04T01:07:44.537Z,3.33
2018-08-04T01:10:13.443Z,3.00
2018-08-04T01:12:42.358Z,3.13
2018-08-04T01:15:11.261Z,3.13
2018-08-04T01:17:40.280Z,2.90
2018-08-04T01:20:09.475Z,3.37
2018-08-04T01:22:38.366Z,3.13
2018-08-04T01:25:07.914Z,3.67
2018-08-04T01:27:37.580Z,3.20
2018-08-04T01:30:06.832Z,3.57
2018-08-04T01:32:35.747Z,3.57
2018-08-04T01:35:04.691Z,3.80
2018-08-04T01:37:33.611Z,3.83
2018-08-04T01:40:02.511Z,3.67
2018-08-04T01:42:32.566Z,3.77
2018-08-04T01:45:01.505Z,3.73
2018-08-04T01:47:30.353Z,3.73
2018-08-04T01:49:59.327Z,4.37
2018-08-04T01:52:28.211Z,3.83
2018-08-04T01:54:57.170Z,3.70
2018-08-04T01:57:26.074Z,3.97
2018-08-04T01:59:54.969Z,3.30
2018-08-04T02:02:23.926Z,3.83
2018-08-04T02:04:52.977Z,3.37
2018-08-04T02:07:22.356Z,3.77
2018-08-04T02:09:52.071Z,3.50
2018-08-04T02:12:26.827Z,3.80
2018-08-04T02:15:01.287Z,3.83
2018-08-04T02:17:30.173Z,3.10
2018-08-04T02:19:59.191Z,2.87
2018-08-04T02:22:28.061Z,3.33
2018-08-04T02:24:57.031Z,3.40
2018-08-04T02:27:25.910Z,2.97
2018-08-04T02:29:54.826Z,3.07
2018-08-04T02:32:23.786Z,3.60
2018-08-04T02:34:52.691Z,3.17
2018-08-04T02:37:21.671Z,3.50
2018-08-04T02:39:50.575Z,3.50
2018-08-04T02:42:19.467Z,3.70
2018-08-04T02:44:48.948Z,3.40
2018-08-04T02:47:17.879Z,2.83
2018-08-04T02:49:46.813Z,3.47
2018-08-04T02:52:15.698Z,3.50
2018-08-04T02:54:44.628Z,3.80
2018-08-04T02:57:14.020Z,3.50
2018-08-04T02:59:42.904Z,3.60
2018-08-04T03:02:11.971Z,3.33
2018-08-04T03:04:40.943Z,3.37
2018-08-04T03:07:09.842Z,3.33
2018-08-04T03:09:39.617Z,3.67
2018-08-04T03:12:08.550Z,3.80
2018-08-04T03:14:37.459Z,3.57
2018-08-04T03:17:07.028Z,3.60
2018-08-04T03:19:36.053Z,3.97
2018-08-04T03:22:04.983Z,3.40
2018-08-04T03:24:34.013Z,3.17
2018-08-04T03:27:03.053Z,3.17
2018-08-04T03:29:31.975Z,3.30
2018-08-04T03:32:01.520Z,3.30
2018-08-04T03:34:30.467Z,3.40
2018-08-04T03:36:59.417Z,3.30
2018-08-04T03:39:28.311Z,3.47
2018-08-04T03:41:58.289Z,3.40
2018-08-04T03:44:27.179Z,3.97
2018-08-04T03:46:56.145Z,3.57
2018-08-04T03:49:25.049Z,3.57
2018-08-04T03:51:53.949Z,3.80
2018-08-04T03:54:22.841Z,3.63
2018-08-04T03:56:51.778Z,3.30
2018-08-04T03:59:20.687Z,3.33
2018-08-04T04:01:49.597Z,3.20
2018-08-04T04:04:18.549Z,3.50
2018-08-04T04:06:47.499Z,3.10
2018-08-04T04:09:16.455Z,3.37
2018-08-04T04:11:45.335Z,3.90
2018-08-04T04:14:14.295Z,3.27
2018-08-04T04:16:43.191Z,3.87
2018-08-04T04:19:12.087Z,3.33
2018-08-04T04:21:40.969Z,3.47
2018-08-04T04:24:09.940Z,3.67
2018-08-04T04:26:38.824Z,3.30
2018-08-04T04:29:07.817Z,3.37
2018-08-04T04:31:36.708Z,3.40
2018-08-04T04:34:06.815Z,2.87
2018-08-04T04:36:35.891Z,3.10
2018-08-04T04:39:07.379Z,3.27
2018-08-04T04:41:36.384Z,3.27
2018-08-04T04:44:05.587Z,3.60
2018-08-04T04:46:38.806Z,3.17
2018-08-04T04:49:09.758Z,3.27
2018-08-04T04:51:39.264Z,3.10
2018-08-04T04:54:08.185Z,2.97
2018-08-04T04:56:42.380Z,3.13
2018-08-04T04:59:11.287Z,2.87
2018-08-04T05:01:40.211Z,2.90
2018-08-04T05:04:09.097Z,3.20
2018-08-04T05:06:38.022Z,3.50
2018-08-04T05:09:07.687Z,3.30
2018-08-04T05:11:36.578Z,3.70
2018-08-04T05:14:05.500Z,3.70
2018-08-04T05:16:34.484Z,3.40
2018-08-04T05:19:03.360Z,3.47
2018-08-04T05:21:32.358Z,3.57
2018-08-04T05:24:01.258Z,3.40
2018-08-04T05:26:30.157Z,3.13
2018-08-04T05:28:59.151Z,3.47
2018-08-04T05:31:28.034Z,2.80
2018-08-04T05:33:56.922Z,3.27
2018-08-04T05:36:25.842Z,3.83
2018-08-04T05:38:54.778Z,3.97
2018-08-04T05:41:23.676Z,3.60
2018-08-04T05:43:52.676Z,3.50
2018-08-04T05:46:24.712Z,4.00
2018-08-04T05:48:55.742Z,4.30
2018-08-04T05:51:25.690Z,3.90
2018-08-04T05:53:54.622Z,3.53
2018-08-04T05:56:23.853Z,4.03
2018-08-04T05:58:53.039Z,4.87
2018-08-04T06:01:24.052Z,4.60
2018-08-04T06:03:53.117Z,4.80
2018-08-04T06:06:22.018Z,4.50
2018-08-04T06:08:50.896Z,4.27
2018-08-04T06:11:19.871Z,4.57
2018-08-04T06:13:48.863Z,4.40
2018-08-04T06:16:17.794Z,4.30
2018-08-04T06:18:46.730Z,4.20
2018-08-04T06:21:15.708Z,4.43
2018-08-04T06:23:44.595Z,4.93
2018-08-04T06:26:13.545Z,4.80
2018-08-04T06:28:42.454Z,4.37
2018-08-04T06:31:11.383Z,4.70
2018-08-04T06:33:40.272Z,4.23
2018-08-04T06:36:09.288Z,4.40
2018-08-04T06:38:38.240Z,3.97
2018-08-04T06:41:07.316Z,4.37
2018-08-04T06:43:36.253Z,3.70
2018-08-04T06:46:05.249Z,3.57
2018-08-04T06:48:34.256Z,3.37
2018-08-04T06:51:03.186Z,3.43
2018-08-04T06:53:32.136Z,3.40
2018-08-04T06:56:01.132Z,3.13
2018-08-04T06:58:30.148Z,3.27
2018-08-04T07:00:59.034Z,2.70
2018-08-04T07:03:28.038Z,3.13
2018-08-04T07:05:57.028Z,2.77
2018-08-04T07:08:25.952Z,2.57
2018-08-04T07:10:55.007Z,2.67
2018-08-04T07:13:23.888Z,3.20
2018-08-04T07:15:52.812Z,2.50
2018-08-04T07:18:21.721Z,3.17
2018-08-04T07:20:50.667Z,2.87
2018-08-04T07:23:19.572Z,2.60
2018-08-04T07:25:48.522Z,2.33
2018-08-04T07:28:17.440Z,2.60
2018-08-04T07:30:46.346Z,2.77
2018-08-04T07:33:15.332Z,3.17
2018-08-04T07:35:44.278Z,3.50
2018-08-04T07:38:13.200Z,2.80
2018-08-04T07:40:42.133Z,3.80
2018-08-04T07:43:11.039Z,3.40
2018-08-04T07:45:39.930Z,3.30
2018-08-04T07:48:08.943Z,2.90
2018-08-04T07:50:37.834Z,3.17
2018-08-04T07:53:06.796Z,2.77
2018-08-04T07:55:36.844Z,2.67
2018-08-04T07:58:05.790Z,3.07
2018-08-04T08:00:34.754Z,3.60
2018-08-04T08:03:03.948Z,3.20
2018-08-04T08:05:32.876Z,3.27
2018-08-04T08:08:01.800Z,3.20
2018-08-04T08:10:30.812Z,3.30
2018-08-04T08:12:59.632Z,3.00
2018-08-04T08:15:28.572Z,2.83
2018-08-04T08:17:57.478Z,3.33
2018-08-04T08:20:26.420Z,2.93
2018-08-04T08:22:55.361Z,3.27
2018-08-04T08:25:24.306Z,3.00
2018-08-04T08:27:53.202Z,3.50
2018-08-04T08:30:22.131Z,3.00
2018-08-04T08:32:51.058Z,3.53
2018-08-04T08:35:19.983Z,3.50
2018-08-04T08:37:48.946Z,3.10
2018-08-04T08:40:17.921Z,3.10
2018-08-04T08:42:46.894Z,3.10
2018-08-04T08:45:15.823Z,2.80
2018-08-04T08:47:44.775Z,2.60
2018-08-04T08:50:13.709Z,3.10
2018-08-04T08:52:42.587Z,3.27
2018-08-04T08:55:11.578Z,3.20
2018-08-04T08:57:40.550Z,3.10
2018-08-04T09:00:11.592Z,3.20
2018-08-04T09:02:40.507Z,3.53
2018-08-04T09:05:10.590Z,2.93
2018-08-04T09:07:39.540Z,3.10
2018-08-04T09:10:11.152Z,2.80
2018-08-04T09:12:40.117Z,4.07
2018-08-04T09:15:09.432Z,3.00
2018-08-04T09:17:38.352Z,3.40
2018-08-04T09:20:08.459Z,3.40
2018-08-04T09:22:37.385Z,3.10
2018-08-04T09:25:07.036Z,3.20
2018-08-04T09:27:36.070Z,3.70
2018-08-04T09:30:07.260Z,2.97
2018-08-04T09:32:36.402Z,3.70
2018-08-04T09:35:05.470Z,3.30
2018-08-04T09:37:34.362Z,3.00
2018-08-04T09:40:03.419Z,3.60
2018-08-04T09:42:32.312Z,3.97
2018-08-04T09:45:01.208Z,3.20
2018-08-04T09:47:30.174Z,3.33
2018-08-04T09:49:59.100Z,4.03
2018-08-04T09:52:28.155Z,3.97
2018-08-04T09:54:57.008Z,3.70
2018-08-04T09:57:25.976Z,3.37
2018-08-04T09:59:54.870Z,3.47
2018-08-04T10:02:24.644Z,3.63
2018-08-04T10:04:54.217Z,4.20
2018-08-04T10:07:23.229Z,3.70
2018-08-04T10:09:52.499Z,3.50
2018-08-04T10:12:21.450Z,3.37
2018-08-04T10:14:50.366Z,3.70
2018-08-04T10:17:19.229Z,3.63
2018-08-04T10:19:48.127Z,3.20
2018-08-04T10:22:18.061Z,3.20
2018-08-04T10:24:46.939Z,3.60
2018-08-04T10:27:15.903Z,2.90
2018-08-04T10:29:44.853Z,4.00
2018-08-04T10:32:13.925Z,3.00
2018-08-04T10:34:42.720Z,3.00
2018-08-04T10:37:11.629Z,3.13
2018-08-04T10:39:40.499Z,2.63
2018-08-04T10:42:09.511Z,3.47
2018-08-04T10:44:38.451Z,2.53
2018-08-04T10:47:07.333Z,3.17
2018-08-04T10:49:36.297Z,2.70
2018-08-04T10:52:05.219Z,3.10
2018-08-04T10:54:34.163Z,3.27
2018-08-04T10:57:03.108Z,3.13
2018-08-04T10:59:32.041Z,3.30
2018-08-04T11:02:01.015Z,3.13
2018-08-04T11:04:29.947Z,2.83
2018-08-04T11:06:58.887Z,3.03
2018-08-04T11:09:27.811Z,3.30
2018-08-04T11:11:56.743Z,3.20
2018-08-04T11:14:26.718Z,3.47
2018-08-04T11:16:55.615Z,3.00
2018-08-04T11:19:24.583Z,3.80
2018-08-04T11:21:54.668Z,3.50
2018-08-04T11:24:23.592Z,3.20
2018-08-04T11:26:52.647Z,3.27
2018-08-04T11:29:21.562Z,3.10
2018-08-04T11:31:50.580Z,2.70
2018-08-04T11:34:19.511Z,3.10
2018-08-04T11:36:48.494Z,2.97
2018-08-04T11:39:17.457Z,3.00
2018-08-04T11:41:46.423Z,2.70
2018-08-04T11:44:15.356Z,2.40
2018-08-04T11:46:44.261Z,2.70
2018-08-04T11:49:13.199Z,3.07
2018-08-04T11:51:42.290Z,2.73
2018-08-04T11:54:11.180Z,3.73
2018-08-04T11:56:40.174Z,2.57
2018-08-04T11:59:09.227Z,2.80
2018-08-04T12:01:38.189Z,2.83
2018-08-04T12:04:07.158Z,2.80
2018-08-04T12:06:36.081Z,2.63
2018-08-04T12:09:08.211Z,2.90
2018-08-04T12:13:06.520Z,2.60
2018-08-04T12:15:35.521Z,2.90
2018-08-04T12:18:04.485Z,2.97
2018-08-04T12:20:33.392Z,2.73
2018-08-04T12:23:02.278Z,2.47
2018-08-04T12:25:31.384Z,2.90
2018-08-04T12:28:00.208Z,2.47
2018-08-04T12:30:29.127Z,2.50
2018-08-04T12:32:58.039Z,3.00
2018-08-04T12:35:27.057Z,2.77
2018-08-04T12:37:55.943Z,3.40
2018-08-04T12:40:24.833Z,2.80
2018-08-04T12:42:53.789Z,3.27
2018-08-04T12:45:23.076Z,2.97
2018-08-04T12:47:52.019Z,2.87
2018-08-04T12:50:20.976Z,2.63
2018-08-04T12:52:49.907Z,3.50
2018-08-04T12:55:18.857Z,2.93
2018-08-04T12:57:47.765Z,2.50
2018-08-04T13:00:17.852Z,2.60
2018-08-04T13:02:46.849Z,2.73
2018-08-04T13:05:15.755Z,2.40
2018-08-04T13:07:45.721Z,2.80
2018-08-04T13:10:14.709Z,2.70
2018-08-04T13:12:43.665Z,2.70
2018-08-04T13:15:12.589Z,2.43
2018-08-04T13:17:41.514Z,3.00
2018-08-04T13:20:10.507Z,2.67
2018-08-04T13:22:39.382Z,3.00
2018-08-04T13:25:08.467Z,3.33
2018-08-04T13:27:37.371Z,3.13
2018-08-04T13:30:06.343Z,2.83
2018-08-04T13:32:35.228Z,3.20
2018-08-04T13:35:04.243Z,3.07
2018-08-04T13:37:33.241Z,3.17
2018-08-04T13:40:02.232Z,2.97
2018-08-04T13:42:31.251Z,2.90
2018-08-04T13:45:00.193Z,2.90
2018-08-04T13:47:29.089Z,3.10
2018-08-04T13:49:58.076Z,2.97
2018-08-04T13:52:26.988Z,2.97
2018-08-04T13:54:56.176Z,2.60
2018-08-04T13:57:25.104Z,2.40
2018-08-04T13:59:54.072Z,2.80
2018-08-04T14:02:22.984Z,2.60
2018-08-04T14:04:51.935Z,2.83
2018-08-04T14:07:20.964Z,3.23
2018-08-04T14:09:49.860Z,3.00
2018-08-04T14:12:19.048Z,3.07
2018-08-04T14:14:48.156Z,2.97
2018-08-04T14:17:17.152Z,3.10
2018-08-04T14:19:46.082Z,2.67
2018-08-04T14:22:15.033Z,2.93
2018-08-04T14:24:43.963Z,2.97
2018-08-04T14:27:12.916Z,2.83
2018-08-04T14:29:41.874Z,2.33
2018-08-04T14:32:10.880Z,2.57
2018-08-04T14:34:39.796Z,2.43
2018-08-04T14:37:08.696Z,2.37
2018-08-04T14:39:37.599Z,2.50
2018-08-04T14:42:06.517Z,2.17
2018-08-04T14:44:35.477Z,2.40
2018-08-04T14:47:04.378Z,2.40
2018-08-04T14:49:33.309Z,3.00
2018-08-04T14:52:02.262Z,3.20
2018-08-04T14:54:31.138Z,4.17
2018-08-04T14:57:00.051Z,4.60
2018-08-04T14:59:28.946Z,4.60
2018-08-04T15:01:57.889Z,5.70
2018-08-04T15:04:26.907Z,6.10
2018-08-04T15:06:55.887Z,6.70
2018-08-04T15:09:24.878Z,7.83
2018-08-04T15:11:53.885Z,8.43
2018-08-04T15:14:22.783Z,9.37
2018-08-04T15:16:51.729Z,7.73
2018-08-04T15:19:20.610Z,8.67
2018-08-04T15:21:49.559Z,8.93
2018-08-04T15:24:18.479Z,10.43
2018-08-04T15:26:47.527Z,11.53
2018-08-04T15:29:16.434Z,9.63
2018-08-04T15:31:46.497Z,13.13
2018-08-04T15:34:15.552Z,12.10
2018-08-04T15:36:44.514Z,13.07
2018-08-04T15:39:13.423Z,12.50
2018-08-04T15:41:42.536Z,14.07
2018-08-04T15:44:11.877Z,12.00
2018-08-04T15:46:40.869Z,11.70
2018-08-04T15:49:09.815Z,14.37
2018-08-04T15:51:38.877Z,12.13
2018-08-04T15:54:07.915Z,11.07
2018-08-04T15:56:36.861Z,10.13
2018-08-04T15:59:05.803Z,8.80
2018-08-04T16:01:34.728Z,7.47
2018-08-04T16:04:03.958Z,7.43
2018-08-04T16:06:32.884Z,5.97
2018-08-04T16:09:02.838Z,5.80
2018-08-04T16:11:31.783Z,5.03
2018-08-04T16:14:00.676Z,4.33
2018-08-04T16:16:30.468Z,4.20
2018-08-04T16:19:01.758Z,4.57
2018-08-04T16:21:30.595Z,4.40
2018-08-04T16:23:59.639Z,4.23
2018-08-04T16:26:28.539Z,4.27
2018-08-04T16:28:57.423Z,5.30
2018-08-04T16:31:26.359Z,4.37
2018-08-04T16:33:55.699Z,4.20
2018-08-04T16:36:24.671Z,4.07
2018-08-04T16:38:53.721Z,4.20
2018-08-04T16:41:23.193Z,4.17
2018-08-04T16:43:52.267Z,4.07
2018-08-04T16:46:21.183Z,4.13
2018-08-04T16:48:50.049Z,3.57
2018-08-04T16:51:18.963Z,3.80
2018-08-04T16:53:47.998Z,3.43
2018-08-04T16:56:16.977Z,4.23
2018-08-04T16:58:45.899Z,4.00
2018-08-04T17:01:14.873Z,3.80
2018-08-04T17:03:43.770Z,3.40
2018-08-04T17:06:12.658Z,3.40
2018-08-04T17:08:41.539Z,3.87
2018-08-04T17:11:10.483Z,3.27
2018-08-04T17:13:39.373Z,4.03
2018-08-04T17:16:08.296Z,3.33
2018-08-04T17:18:37.224Z,4.13
2018-08-04T17:21:06.135Z,3.60
2018-08-04T17:23:35.000Z,3.50
2018-08-04T17:26:04.225Z,3.97
2018-08-04T17:28:33.190Z,3.37
2018-08-04T17:31:02.543Z,3.70
2018-08-04T17:33:31.434Z,3.67
2018-08-04T17:36:00.360Z,3.43
2018-08-04T17:38:29.281Z,3.20
2018-08-04T17:40:58.237Z,3.20
2018-08-04T17:43:27.140Z,3.60
2018-08-04T17:45:56.075Z,3.33
2018-08-04T17:48:24.981Z,3.60
2018-08-04T17:50:53.989Z,3.03
2018-08-04T17:53:22.930Z,3.00
2018-08-04T17:55:51.821Z,3.43
2018-08-04T17:58:20.760Z,3.70
2018-08-04T18:00:49.652Z,3.17
2018-08-04T18:03:24.154Z,2.90
2018-08-04T18:05:58.495Z,3.80
2018-08-04T18:08:27.370Z,3.27
2018-08-04T18:10:56.304Z,3.20
2018-08-04T18:13:25.217Z,3.40
2018-08-04T18:15:54.098Z,3.60
2018-08-04T18:18:23.042Z,3.13
2018-08-04T18:20:54.065Z,3.30
2018-08-04T18:23:22.974Z,3.67
2018-08-04T18:25:51.883Z,3.30
2018-08-04T18:28:20.771Z,3.30
2018-08-04T18:30:49.673Z,4.17
2018-08-04T18:33:18.567Z,3.60
2018-08-04T18:35:47.596Z,3.53
2018-08-04T18:38:16.681Z,4.00
2018-08-04T18:40:45.610Z,3.83
2018-08-04T18:43:14.551Z,3.90
2018-08-04T18:45:43.456Z,4.67
2018-08-04T18:48:12.328Z,3.67
2018-08-04T18:50:41.218Z,4.40
2018-08-04T18:53:10.202Z,4.13
2018-08-04T18:55:39.232Z,3.60
2018-08-04T18:58:08.368Z,4.00
2018-08-04T19:00:37.576Z,4.40
2018-08-04T19:03:06.585Z,4.20
2018-08-04T19:05:35.420Z,4.17
2018-08-04T19:08:04.316Z,4.23
2018-08-04T19:10:33.211Z,4.63
2018-08-04T19:13:02.980Z,3.83
2018-08-04T19:15:31.831Z,4.37
2018-08-04T19:18:00.788Z,4.43
2018-08-04T19:20:29.672Z,4.00
2018-08-04T19:22:58.904Z,4.27
2018-08-04T19:25:27.832Z,4.80
2018-08-04T19:27:57.122Z,4.60
2018-08-04T19:30:25.974Z,4.10
2018-08-04T19:32:54.903Z,4.80
2018-08-04T19:35:23.818Z,4.10
2018-08-04T19:37:52.728Z,4.17
2018-08-04T19:40:21.617Z,4.23
2018-08-04T19:42:50.937Z,4.43
2018-08-04T19:45:19.850Z,4.93
2018-08-04T19:47:48.812Z,4.40
2018-08-04T19:50:17.708Z,4.50
2018-08-04T19:52:46.711Z,4.47
2018-08-04T19:55:15.626Z,4.50
2018-08-04T19:57:44.537Z,4.83
2018-08-04T20:00:13.471Z,4.47
2018-08-04T20:02:42.580Z,4.73
2018-08-04T20:05:11.476Z,4.40
2018-08-04T20:07:40.369Z,5.10
2018-08-04T20:10:09.259Z,4.60
2018-08-04T20:12:38.187Z,5.33
2018-08-04T20:15:07.084Z,4.93
2018-08-04T20:17:35.959Z,4.03
2018-08-04T20:20:05.276Z,4.73
2018-08-04T20:22:34.168Z,4.70
2018-08-04T20:25:03.136Z,4.27
2018-08-04T20:27:32.092Z,5.00
2018-08-04T20:30:01.023Z,4.60
2018-08-04T20:32:29.931Z,4.33
2018-08-04T20:34:59.028Z,4.00
2018-08-04T20:37:27.960Z,4.70
2018-08-04T20:39:56.843Z,4.80
2018-08-04T20:42:25.838Z,4.77
2018-08-04T20:44:54.696Z,4.80
2018-08-04T20:47:23.620Z,4.77
2018-08-04T20:49:52.470Z,4.37
2018-08-04T20:52:21.363Z,5.63
2018-08-04T20:54:50.304Z,5.00
2018-08-04T20:57:19.222Z,4.43
2018-08-04T20:59:48.184Z,4.57
2018-08-04T21:02:17.100Z,4.57
2018-08-04T21:04:46.061Z,4.10
2018-08-04T21:07:15.085Z,4.43
2018-08-04T21:09:43.992Z,4.40
2018-08-04T21:12:12.902Z,4.60
2018-08-04T21:14:41.810Z,3.93
2018-08-04T21:17:10.759Z,3.90
2018-08-04T21:19:39.762Z,3.97
2018-08-04T21:22:08.690Z,3.93
2018-08-04T21:24:37.612Z,3.90
2018-08-04T21:27:06.534Z,4.20
2018-08-04T21:29:35.441Z,4.10
2018-08-04T21:32:04.453Z,3.60
2018-08-04T21:34:33.401Z,3.40
2018-08-04T21:37:02.374Z,3.77
2018-08-04T21:39:31.288Z,3.50
2018-08-04T21:42:00.320Z,4.27
2018-08-04T21:44:31.253Z,3.70
2018-08-04T21:47:00.270Z,4.27
2018-08-04T21:49:29.343Z,3.50
2018-08-04T21:51:58.337Z,4.10
2018-08-04T21:54:27.311Z,3.57
2018-08-04T21:56:56.222Z,3.90
2018-08-04T21:59:25.266Z,3.27
2018-08-04T22:01:55.098Z,3.60
2018-08-04T22:04:25.409Z,3.50
2018-08-04T22:08:04.531Z,4.03
2018-08-04T22:10:33.465Z,3.80
2018-08-04T22:13:02.481Z,3.83
2018-08-04T22:15:31.555Z,4.30
2018-08-04T22:18:00.615Z,3.97
2018-08-04T22:20:29.964Z,3.57
2018-08-04T22:22:58.934Z,3.77
2018-08-04T22:25:28.964Z,4.30
2018-08-04T22:27:59.295Z,3.50
2018-08-04T22:30:28.268Z,4.00
2018-08-04T22:32:57.244Z,4.03
2018-08-04T22:35:26.241Z,4.40
2018-08-04T22:37:55.202Z,4.13
2018-08-04T22:40:24.151Z,4.10
2018-08-04T22:42:53.111Z,4.30
2018-08-04T22:45:46.473Z,4.90
2018-08-04T22:48:15.429Z,4.80
2018-08-04T22:50:44.457Z,4.63
2018-08-04T22:53:13.543Z,4.23
2018-08-04T22:55:43.011Z,3.93
2018-08-04T22:58:12.331Z,5.13
2018-08-04T23:00:42.425Z,4.43
2018-08-04T23:03:11.998Z,4.17
2018-08-04T23:05:41.032Z,4.53
2018-08-04T23:08:11.031Z,4.90
2018-08-04T23:10:40.377Z,4.50
2018-08-04T23:13:10.091Z,3.90
2018-08-04T23:15:38.979Z,4.17
2018-08-04T23:18:08.222Z,4.87
2018-08-04T23:20:37.227Z,4.13
2018-08-04T23:23:06.480Z,4.63
2018-08-04T23:25:35.396Z,4.67
2018-08-04T23:28:04.375Z,4.67
2018-08-04T23:30:33.362Z,4.33
2018-08-04T23:33:02.280Z,4.57
2018-08-04T23:35:31.170Z,4.07
2018-08-04T23:38:00.232Z,4.90
2018-08-04T23:40:29.210Z,4.57
2018-08-04T23:42:58.143Z,4.43
2018-08-04T23:45:27.040Z,4.50
2018-08-04T23:47:55.974Z,4.47
2018-08-04T23:50:24.955Z,4.80
2018-08-04T23:52:53.881Z,4.20
2018-08-04T23:55:22.825Z,4.43
2018-08-04T23:57:51.820Z,4.20
